Alva, Wyoming
Current Conditions -  °F | °C
As of 2:15 AM on Sunday 21 Dec 2014 (Local Time) from KSPF Reporting Station
Clear Clear  
Wind Chill: 34°   Ceiling: Unl
Heat Index: 34°   Visibility: 10mi
Dew Point: 21°   Wind: 3mph
Humidity: 60%   Direction: 310°NW
Pressure: 29.67"   Gusts: NA
Location:  44.69°N, 104.44°W
Report Text: KSPF 210915Z AUTO 31003KT 10SM CLR 01/M06 A2967 RMK AO2
Loading
Personal Weather Stations






























Interactive Weather Map New forecast layout! Learn more

10-Day Weather Forecast

Advertisements
Track Severe Weather on mobile